Pagina principală
METAR-TAF:

METAR-TAF

Aeroporturi :

Powell River, Columbia Britanică, Canada

Latitudine: 49-50N, longitudine: 124-30W, elevație: 130 m

Observații meteo curente

Raportul a fost făcut în urmă cu 52 de minute, la 21:00 UTC
Vânt 5 kt de la Vest/Sud-vest, variabil între Sud/Sud-vest și Vest
Temperatură 14°C
Umiditate 67%
Presiune 1017 hPa
Vizibilitate: 48.3 km
Nori puțini la o înălțime de 1500 picior
Nori puțini la o înălțime de 3000 picior
Nori fragmentați la o înălțime de 5400 picior
Total acoperit la o înălțime de 21000 picior

METAR: CYPW 162100Z 25005KT 210V280 30SM FEW015 FEW030 BKN054 OVC210 14/08 A3003 RMK SC1CU1SC7CS1 SC TR CU TR SLP171

Ora: 14:52 (21:52 UTC)


TAF: lipsă

Observații și prognoze meteo pentru peste 4.000 de aeroporturi (rapoarte METAR și TAF).

Stațiile disponibile sunt reprezentate pe hartă prin puncte galbene și roșii.

Țineți indicatorul mouse-ului pe punctul dorit pentru a vedea denumirea stației.

Apoi, faceți clic pentru a vedea observațiile și prognozele meteorologice.

Pentru a schimba harta: Pentru mărire, faceți clic pe butoanele verzi cu cruce neagră; pentru micșorare, pe butonul verde cu o liniuță; pentru hărți învecinate, pe săgețile verzi.


METAR-TAF: